createdAt,value
2023-06-26T00:00:16.294Z,4.95
2023-06-26T00:02:42.966Z,4.68
2023-06-26T00:05:09.731Z,5.40
2023-06-26T00:07:36.393Z,4.93
2023-06-26T00:10:04.596Z,4.55
2023-06-26T00:12:32.089Z,4.70
2023-06-26T00:14:59.418Z,4.43
2023-06-26T00:17:26.222Z,4.97
2023-06-26T00:19:53.194Z,4.72
2023-06-26T00:22:21.903Z,4.72
2023-06-26T00:24:48.481Z,5.13
2023-06-26T00:27:15.108Z,4.60
2023-06-26T00:29:41.656Z,4.40
2023-06-26T00:32:08.296Z,4.68
2023-06-26T00:34:34.898Z,4.60
2023-06-26T00:37:01.564Z,4.60
2023-06-26T00:39:28.144Z,4.53
2023-06-26T00:41:54.711Z,4.80
2023-06-26T00:44:21.396Z,4.57
2023-06-26T00:46:48.212Z,4.22
2023-06-26T00:49:15.211Z,4.40
2023-06-26T00:51:42.285Z,4.32
2023-06-26T00:54:09.040Z,4.25
2023-06-26T00:56:36.343Z,4.40
2023-06-26T00:59:02.948Z,4.30
2023-06-26T01:01:29.773Z,4.03
2023-06-26T01:03:56.392Z,4.47
2023-06-26T01:06:24.982Z,4.65
2023-06-26T01:08:53.141Z,3.80
2023-06-26T01:11:19.945Z,4.25
2023-06-26T01:13:46.776Z,4.30
2023-06-26T01:16:15.725Z,4.25
2023-06-26T01:18:43.134Z,4.55
2023-06-26T01:21:14.516Z,4.53
2023-06-26T01:23:49.974Z,4.25
2023-06-26T01:26:23.253Z,4.30
2023-06-26T01:28:54.565Z,4.35
2023-06-26T01:31:21.463Z,4.20
2023-06-26T01:33:48.422Z,4.68
2023-06-26T01:36:15.088Z,4.30
2023-06-26T01:38:41.787Z,3.70
2023-06-26T01:41:08.421Z,4.38
2023-06-26T01:44:03.197Z,4.03
2023-06-26T01:46:43.738Z,3.83
2023-06-26T01:49:20.531Z,4.28
2023-06-26T01:51:53.439Z,4.30
2023-06-26T01:54:23.736Z,4.60
2023-06-26T01:56:53.439Z,4.05
2023-06-26T01:59:21.683Z,4.15
2023-06-26T02:01:48.600Z,4.60
2023-06-26T02:04:15.230Z,4.60
2023-06-26T02:06:41.926Z,3.80
2023-06-26T02:09:08.586Z,4.47
2023-06-26T02:11:35.321Z,5.10
2023-06-26T02:14:01.980Z,3.92
2023-06-26T02:16:28.642Z,4.95
2023-06-26T02:18:55.305Z,3.97
2023-06-26T02:21:21.857Z,4.35
2023-06-26T02:23:48.515Z,4.35
2023-06-26T02:26:15.095Z,4.10
2023-06-26T02:28:41.689Z,4.45
2023-06-26T02:31:08.355Z,4.53
2023-06-26T02:33:35.012Z,4.78
2023-06-26T02:36:01.639Z,4.30
2023-06-26T02:38:28.193Z,3.60
2023-06-26T02:40:54.740Z,4.32
2023-06-26T02:43:21.358Z,4.00
2023-06-26T02:45:47.962Z,4.35
2023-06-26T02:48:14.583Z,3.75
2023-06-26T02:50:41.435Z,3.83
2023-06-26T02:53:08.211Z,2.92
2023-06-26T02:55:35.513Z,3.40
2023-06-26T02:58:02.100Z,4.47
2023-06-26T03:00:28.683Z,3.88
2023-06-26T03:02:55.370Z,3.95
2023-06-26T03:05:22.001Z,3.97
2023-06-26T03:07:48.616Z,4.30
2023-06-26T03:10:15.239Z,4.40
2023-06-26T03:12:41.812Z,4.20
2023-06-26T03:15:08.871Z,4.57
2023-06-26T03:17:35.417Z,4.72
2023-06-26T03:20:02.049Z,4.10
2023-06-26T03:22:28.678Z,4.25
2023-06-26T03:24:55.223Z,4.43
2023-06-26T03:27:21.788Z,4.05
2023-06-26T03:29:48.337Z,4.65
2023-06-26T03:32:14.876Z,4.35
2023-06-26T03:34:41.460Z,4.10
2023-06-26T03:37:08.141Z,4.30
2023-06-26T03:39:34.717Z,3.90
2023-06-26T03:42:01.381Z,4.38
2023-06-26T03:44:28.760Z,3.80
2023-06-26T03:46:55.285Z,4.05
2023-06-26T03:49:21.818Z,3.75
2023-06-26T03:51:48.429Z,3.58
2023-06-26T03:54:14.990Z,3.42
2023-06-26T03:56:41.592Z,3.33
2023-06-26T03:59:08.202Z,3.60
2023-06-26T04:01:36.552Z,3.38
2023-06-26T04:04:03.418Z,3.20
2023-06-26T04:06:29.985Z,3.30
2023-06-26T04:08:56.529Z,3.50
2023-06-26T04:11:23.055Z,3.47
2023-06-26T04:13:49.661Z,3.53
2023-06-26T04:16:16.231Z,3.47
2023-06-26T04:18:42.924Z,3.17
2023-06-26T04:21:11.471Z,3.90
2023-06-26T04:23:39.268Z,3.83
2023-06-26T04:26:07.283Z,3.60
2023-06-26T04:28:37.141Z,3.17
2023-06-26T04:31:04.054Z,3.10
2023-06-26T04:33:30.693Z,4.10
2023-06-26T04:35:57.388Z,3.40
2023-06-26T04:38:24.072Z,4.05
2023-06-26T04:40:50.594Z,3.58
2023-06-26T04:43:17.184Z,3.35
2023-06-26T04:45:44.389Z,3.30
2023-06-26T04:48:10.999Z,3.22
2023-06-26T04:50:37.815Z,2.80
2023-06-26T04:53:04.591Z,3.40
2023-06-26T04:55:31.135Z,3.30
2023-06-26T04:57:57.684Z,3.10
2023-06-26T05:00:24.213Z,2.88
2023-06-26T05:02:50.899Z,2.95
2023-06-26T05:05:17.555Z,2.88
2023-06-26T05:07:44.072Z,2.70
2023-06-26T05:10:10.935Z,3.35
2023-06-26T05:12:37.481Z,2.95
2023-06-26T05:15:04.445Z,2.60
2023-06-26T05:17:30.981Z,3.10
2023-06-26T05:19:57.535Z,2.92
2023-06-26T05:22:24.476Z,2.33
2023-06-26T05:24:55.518Z,2.55
2023-06-26T05:27:22.374Z,2.80
2023-06-26T05:29:50.039Z,2.70
2023-06-26T05:32:17.893Z,2.80
2023-06-26T05:34:48.248Z,2.95
2023-06-26T05:37:19.677Z,2.60
2023-06-26T05:39:46.567Z,2.72
2023-06-26T05:42:13.750Z,2.42
2023-06-26T05:44:40.267Z,2.25
2023-06-26T05:47:06.893Z,3.22
2023-06-26T05:49:34.045Z,2.15
2023-06-26T05:52:00.929Z,2.42
2023-06-26T05:54:27.828Z,2.60
2023-06-26T05:56:58.010Z,2.80
2023-06-26T05:59:24.997Z,2.45
2023-06-26T06:01:51.624Z,2.67
2023-06-26T06:04:18.299Z,2.75
2023-06-26T06:06:44.936Z,2.97
2023-06-26T06:09:11.538Z,2.47
2023-06-26T06:11:38.212Z,2.50
2023-06-26T06:14:04.802Z,2.65
2023-06-26T06:16:31.383Z,2.58
2023-06-26T06:18:57.985Z,2.85
2023-06-26T06:21:24.561Z,2.63
2023-06-26T06:23:51.118Z,3.17
2023-06-26T06:26:17.682Z,3.85
2023-06-26T06:28:44.258Z,3.17
2023-06-26T06:31:10.824Z,3.13
2023-06-26T06:33:37.433Z,3.00
2023-06-26T06:36:05.492Z,3.83
2023-06-26T06:38:32.104Z,3.40
2023-06-26T06:40:58.823Z,3.45
2023-06-26T06:43:25.425Z,3.33
2023-06-26T06:45:52.087Z,3.60
2023-06-26T06:48:18.651Z,3.20
2023-06-26T06:50:45.273Z,3.45
2023-06-26T06:53:11.874Z,3.20
2023-06-26T06:55:38.417Z,3.70
2023-06-26T06:58:06.149Z,3.10
2023-06-26T07:00:33.065Z,3.03
2023-06-26T07:02:59.820Z,3.13
2023-06-26T07:05:26.485Z,3.33
2023-06-26T07:07:53.130Z,3.13
2023-06-26T07:10:19.726Z,2.80
2023-06-26T07:12:46.343Z,3.03
2023-06-26T07:15:13.011Z,3.22
2023-06-26T07:17:40.121Z,3.20
2023-06-26T07:20:07.562Z,2.90
2023-06-26T07:22:34.108Z,3.20
2023-06-26T07:25:00.730Z,2.60
2023-06-26T07:27:27.291Z,3.10
2023-06-26T07:29:53.917Z,2.72
2023-06-26T07:32:20.497Z,2.97
2023-06-26T07:34:47.179Z,3.00
2023-06-26T07:37:13.781Z,3.40
2023-06-26T07:39:40.429Z,3.40
2023-06-26T07:42:07.305Z,2.83
2023-06-26T07:44:33.908Z,3.25
2023-06-26T07:47:00.614Z,2.67
2023-06-26T07:49:27.209Z,3.25
2023-06-26T07:51:53.804Z,2.55
2023-06-26T07:54:20.421Z,3.25
2023-06-26T07:56:54.887Z,2.97
2023-06-26T07:59:22.306Z,2.70
2023-06-26T08:01:49.066Z,2.95
2023-06-26T08:04:15.792Z,2.67
2023-06-26T08:06:42.516Z,2.80
2023-06-26T08:09:09.228Z,2.83
2023-06-26T08:11:35.828Z,2.65
2023-06-26T08:14:02.411Z,2.72
2023-06-26T08:16:29.006Z,2.10
2023-06-26T08:18:55.566Z,2.35
2023-06-26T08:21:22.184Z,2.75
2023-06-26T08:23:48.759Z,2.55
2023-06-26T08:26:15.374Z,2.63
2023-06-26T08:28:41.997Z,2.28
2023-06-26T08:31:08.751Z,2.72
2023-06-26T08:33:35.417Z,2.60
2023-06-26T08:36:02.054Z,2.22
2023-06-26T08:38:28.605Z,2.40
2023-06-26T08:40:55.354Z,2.15
2023-06-26T08:43:21.984Z,2.38
2023-06-26T08:45:49.083Z,2.60
2023-06-26T08:48:16.203Z,2.28
2023-06-26T08:50:44.216Z,2.42
2023-06-26T08:53:41.176Z,2.45
2023-06-26T08:56:09.048Z,2.00
2023-06-26T08:58:37.644Z,2.45
2023-06-26T09:01:05.663Z,2.38
2023-06-26T09:03:33.071Z,2.20
2023-06-26T09:05:59.993Z,2.25
2023-06-26T09:08:26.707Z,2.22
2023-06-26T09:10:53.837Z,2.45
2023-06-26T09:13:29.530Z,2.45
2023-06-26T09:15:57.628Z,2.30
2023-06-26T09:18:24.613Z,1.90
2023-06-26T09:20:51.700Z,2.30
2023-06-26T09:23:18.678Z,2.85
2023-06-26T09:25:48.378Z,2.35
2023-06-26T09:28:14.970Z,2.15
2023-06-26T09:30:42.264Z,1.80
2023-06-26T09:33:20.250Z,2.03
2023-06-26T09:35:48.104Z,1.67
2023-06-26T09:38:15.428Z,2.00
2023-06-26T09:40:42.691Z,1.98
2023-06-26T09:43:13.560Z,2.15
2023-06-26T09:45:41.366Z,1.85
2023-06-26T09:48:08.626Z,1.90
2023-06-26T09:50:36.069Z,1.80
2023-06-26T09:53:09.188Z,2.42
2023-06-26T09:55:36.546Z,2.30
2023-06-26T09:58:04.845Z,2.03
2023-06-26T10:00:32.316Z,2.15
2023-06-26T10:03:00.424Z,2.30
2023-06-26T10:05:27.800Z,2.13
2023-06-26T10:07:55.734Z,1.77
2023-06-26T10:10:24.171Z,1.67
2023-06-26T10:12:55.332Z,2.08
2023-06-26T10:15:24.234Z,1.80
2023-06-26T10:17:51.364Z,1.40
2023-06-26T10:20:18.282Z,1.92
2023-06-26T10:22:47.113Z,1.85
2023-06-26T10:25:20.670Z,2.20
2023-06-26T10:27:53.257Z,1.65
2023-06-26T10:30:27.163Z,1.60
2023-06-26T10:32:54.915Z,1.65
2023-06-26T10:35:21.615Z,1.50
2023-06-26T10:37:50.070Z,1.83
2023-06-26T10:40:26.249Z,1.80
2023-06-26T10:43:06.735Z,1.88
2023-06-26T10:45:35.286Z,2.05
2023-06-26T10:48:02.037Z,1.60
2023-06-26T10:50:30.454Z,1.75
2023-06-26T10:53:35.492Z,1.33
2023-06-26T10:56:06.449Z,1.80
2023-06-26T10:58:39.765Z,1.67
2023-06-26T11:01:13.489Z,1.52
2023-06-26T11:04:00.651Z,1.40
2023-06-26T11:06:27.348Z,1.63
2023-06-26T11:09:06.163Z,1.52
2023-06-26T11:11:54.822Z,1.85
2023-06-26T11:14:23.322Z,1.50
2023-06-26T11:16:50.267Z,1.50
2023-06-26T11:19:21.145Z,1.40
2023-06-26T11:21:48.261Z,1.60
2023-06-26T11:24:15.014Z,1.60
2023-06-26T11:26:43.448Z,1.42
2023-06-26T11:29:11.133Z,1.15
2023-06-26T11:31:39.114Z,1.33
2023-06-26T11:34:07.829Z,1.48
2023-06-26T11:36:34.809Z,1.20
2023-06-26T11:39:02.688Z,1.13
2023-06-26T11:41:32.219Z,1.63
2023-06-26T11:44:06.242Z,1.25
2023-06-26T11:46:34.969Z,1.10
2023-06-26T11:49:04.349Z,1.08
2023-06-26T11:51:31.078Z,1.00
2023-06-26T11:53:57.633Z,1.00
2023-06-26T11:56:24.201Z,1.10
2023-06-26T11:59:03.678Z,1.00
2023-06-26T12:01:41.750Z,0.98
2023-06-26T12:04:10.651Z,0.95
2023-06-26T12:09:08.154Z,0.93
2023-06-26T12:11:36.406Z,1.00
2023-06-26T12:14:03.545Z,0.90
2023-06-26T12:16:31.238Z,0.90
2023-06-26T12:19:02.673Z,1.02
2023-06-26T12:21:55.268Z,1.00
2023-06-26T12:26:52.542Z,1.17
2023-06-26T12:29:20.752Z,1.00
2023-06-26T12:31:53.891Z,0.90
2023-06-26T12:34:27.906Z,1.02
2023-06-26T12:36:54.419Z,1.20
2023-06-26T12:39:22.178Z,1.05
2023-06-26T12:41:50.413Z,0.90
2023-06-26T12:44:27.296Z,1.00
2023-06-26T12:46:59.176Z,0.75
2023-06-26T12:49:32.777Z,0.95
2023-06-26T12:52:05.342Z,1.02
2023-06-26T12:54:32.010Z,0.98
2023-06-26T12:56:58.919Z,0.90
2023-06-26T12:59:25.727Z,1.00
2023-06-26T13:01:52.360Z,0.90
2023-06-26T13:04:19.256Z,1.10
2023-06-26T13:06:45.877Z,1.02
2023-06-26T13:09:12.971Z,0.82
2023-06-26T13:11:39.661Z,1.00
2023-06-26T13:14:11.011Z,1.00
2023-06-26T13:16:38.407Z,1.13
2023-06-26T13:19:05.393Z,1.10
2023-06-26T13:21:32.056Z,1.00
2023-06-26T13:23:58.824Z,1.23
2023-06-26T13:26:36.577Z,1.48
2023-06-26T13:29:04.813Z,1.33
2023-06-26T13:31:31.747Z,1.60
2023-06-26T13:33:59.630Z,1.20
2023-06-26T13:36:26.371Z,1.17
2023-06-26T13:38:53.108Z,1.13
2023-06-26T13:41:19.718Z,1.48
2023-06-26T13:43:46.289Z,1.10
2023-06-26T13:46:13.250Z,1.30
2023-06-26T13:48:39.889Z,1.00
2023-06-26T13:51:06.505Z,1.20
2023-06-26T13:53:34.582Z,1.85
2023-06-26T13:56:01.335Z,0.90
2023-06-26T13:58:28.312Z,1.30
2023-06-26T14:00:54.981Z,1.23
2023-06-26T14:03:21.905Z,1.30
2023-06-26T14:05:48.496Z,1.00
2023-06-26T14:08:15.085Z,1.10
2023-06-26T14:10:42.024Z,1.30
2023-06-26T14:13:08.914Z,1.27
2023-06-26T14:15:35.698Z,1.17
2023-06-26T14:18:02.610Z,1.20
2023-06-26T14:20:29.239Z,1.00
2023-06-26T14:22:55.812Z,1.00
2023-06-26T14:25:22.408Z,1.00
2023-06-26T14:27:49.022Z,1.00
2023-06-26T14:30:15.666Z,1.25
2023-06-26T14:32:42.261Z,0.95
2023-06-26T14:35:08.987Z,1.08
2023-06-26T14:37:37.512Z,0.90
2023-06-26T14:40:04.408Z,1.00
2023-06-26T14:42:31.500Z,1.20
2023-06-26T14:44:58.448Z,0.90
2023-06-26T14:47:25.720Z,0.82
2023-06-26T14:49:52.419Z,1.10
2023-06-26T14:52:18.944Z,1.13
2023-06-26T14:54:45.520Z,0.95
2023-06-26T14:57:12.218Z,0.90
2023-06-26T14:59:38.752Z,1.10
2023-06-26T15:02:05.828Z,1.27
2023-06-26T15:04:33.261Z,1.00
2023-06-26T15:06:59.815Z,1.05
2023-06-26T15:09:26.342Z,1.00
2023-06-26T15:11:52.995Z,0.85
2023-06-26T15:14:19.684Z,0.90
2023-06-26T15:16:46.303Z,1.10
2023-06-26T15:19:12.915Z,1.10
2023-06-26T15:21:42.647Z,0.85
2023-06-26T15:24:09.646Z,1.10
2023-06-26T15:26:36.217Z,1.02
2023-06-26T15:29:03.449Z,1.10
2023-06-26T15:31:30.781Z,1.33
2023-06-26T15:33:57.650Z,1.17
2023-06-26T15:36:24.253Z,1.20
2023-06-26T15:38:50.848Z,1.00
2023-06-26T15:41:17.509Z,1.20
2023-06-26T15:43:44.105Z,1.13
2023-06-26T15:46:10.695Z,1.10
2023-06-26T15:48:40.744Z,1.10
2023-06-26T15:51:08.601Z,1.60
2023-06-26T15:53:37.734Z,1.30
2023-06-26T15:56:09.754Z,1.20
2023-06-26T15:58:36.929Z,1.20
2023-06-26T16:01:03.778Z,1.20
2023-06-26T16:03:30.424Z,0.93
2023-06-26T16:05:57.052Z,1.15
2023-06-26T16:08:23.657Z,1.10
2023-06-26T16:10:50.253Z,1.10
2023-06-26T16:13:16.918Z,1.10
2023-06-26T16:15:43.455Z,0.80
2023-06-26T16:18:10.130Z,0.98
2023-06-26T16:20:37.856Z,1.38
2023-06-26T16:23:04.490Z,0.90
2023-06-26T16:25:31.081Z,0.98
2023-06-26T16:27:57.631Z,1.25
2023-06-26T16:30:26.889Z,1.00
2023-06-26T16:35:20.005Z,1.00
2023-06-26T16:37:46.581Z,1.77
2023-06-26T16:40:13.206Z,3.25
2023-06-26T16:42:39.737Z,2.10
2023-06-26T16:45:06.914Z,2.70
2023-06-26T16:47:35.649Z,2.30
2023-06-26T16:50:04.684Z,1.02
2023-06-26T16:52:31.279Z,1.10
2023-06-26T16:54:57.854Z,1.30
2023-06-26T16:57:24.399Z,1.15
2023-06-26T16:59:50.940Z,1.05
2023-06-26T17:02:17.593Z,1.00
2023-06-26T17:04:44.255Z,0.80
2023-06-26T17:07:10.908Z,1.10
2023-06-26T17:09:37.594Z,0.98
2023-06-26T17:12:04.719Z,1.08
2023-06-26T17:14:31.258Z,0.90
2023-06-26T17:16:57.827Z,1.08
2023-06-26T17:19:24.466Z,0.88
2023-06-26T17:27:40.123Z,0.90
2023-06-26T17:33:35.109Z,1.00
2023-06-26T17:36:01.677Z,0.95
2023-06-26T17:38:28.417Z,1.08
2023-06-26T17:40:55.040Z,1.00
2023-06-26T17:43:22.084Z,1.00
2023-06-26T17:45:49.394Z,0.90
2023-06-26T17:48:16.085Z,0.73
2023-06-26T17:50:42.595Z,0.90
2023-06-26T17:53:09.158Z,1.10
2023-06-26T17:55:35.738Z,1.00
2023-06-26T17:58:02.436Z,1.00
2023-06-26T18:00:29.000Z,0.93
2023-06-26T18:02:55.695Z,1.00
2023-06-26T18:05:22.398Z,1.15
2023-06-26T18:08:03.177Z,1.20
2023-06-26T18:10:30.974Z,1.17
2023-06-26T18:13:01.997Z,1.15
2023-06-26T18:15:28.561Z,1.08
2023-06-26T18:17:55.270Z,0.90
2023-06-26T18:20:21.863Z,1.17
2023-06-26T18:22:48.449Z,0.90
2023-06-26T18:25:15.380Z,0.80
2023-06-26T18:27:41.921Z,1.13
2023-06-26T18:30:12.120Z,0.95
2023-06-26T18:32:38.844Z,0.77
2023-06-26T18:35:05.893Z,1.10
2023-06-26T18:37:32.896Z,0.80
2023-06-26T18:39:59.536Z,0.90
2023-06-26T18:42:26.294Z,1.00
2023-06-26T18:44:52.951Z,1.13
2023-06-26T18:47:19.527Z,0.95
2023-06-26T18:49:46.092Z,1.00
2023-06-26T18:52:12.738Z,1.05
2023-06-26T18:54:39.317Z,1.00
2023-06-26T18:57:06.179Z,1.27
2023-06-26T18:59:32.775Z,1.13
2023-06-26T19:01:59.331Z,1.08
2023-06-26T19:04:29.054Z,1.00
2023-06-26T19:06:56.023Z,1.00
2023-06-26T19:09:22.722Z,1.17
2023-06-26T19:11:49.367Z,1.02
2023-06-26T19:14:16.685Z,1.05
2023-06-26T19:20:13.408Z,0.90
2023-06-26T19:22:40.491Z,1.17
2023-06-26T19:25:08.226Z,0.90
2023-06-26T19:27:34.934Z,1.13
2023-06-26T19:30:01.668Z,1.00
2023-06-26T19:32:30.962Z,1.10
2023-06-26T19:34:57.647Z,0.90
2023-06-26T19:37:27.337Z,1.25
2023-06-26T19:39:54.459Z,0.98
2023-06-26T19:42:21.293Z,1.15
2023-06-26T19:44:47.931Z,1.00
2023-06-26T19:47:26.194Z,1.02
2023-06-26T19:50:04.555Z,1.10
2023-06-26T19:52:31.258Z,1.20
2023-06-26T19:54:57.912Z,1.00
2023-06-26T19:57:26.904Z,1.17
2023-06-26T19:59:53.478Z,0.95
2023-06-26T20:02:20.268Z,1.00
2023-06-26T20:04:46.960Z,1.00
2023-06-26T20:07:13.711Z,1.00
2023-06-26T20:09:40.324Z,1.00
2023-06-26T20:12:07.368Z,1.25
2023-06-26T20:14:36.396Z,1.02
2023-06-26T20:17:03.108Z,1.35
2023-06-26T20:19:29.671Z,1.10
2023-06-26T20:21:56.229Z,1.08
2023-06-26T20:24:22.849Z,1.30
2023-06-26T20:26:49.403Z,2.15
2023-06-26T20:29:16.016Z,0.90
2023-06-26T20:31:42.606Z,1.20
2023-06-26T20:34:09.251Z,1.33
2023-06-26T20:36:35.820Z,1.20
2023-06-26T20:39:02.383Z,1.20
2023-06-26T20:41:32.385Z,0.95
2023-06-26T20:43:59.302Z,1.15
2023-06-26T20:46:26.344Z,1.20
2023-06-26T20:48:53.226Z,1.17
2023-06-26T20:51:24.934Z,1.00
2023-06-26T20:53:51.728Z,1.63
2023-06-26T20:56:18.695Z,1.40
2023-06-26T20:58:45.222Z,1.23
2023-06-26T21:01:11.845Z,1.13
2023-06-26T21:03:38.480Z,1.23
2023-06-26T21:06:05.233Z,1.42
2023-06-26T21:08:31.834Z,1.80
2023-06-26T21:10:58.395Z,1.30
2023-06-26T21:13:24.949Z,1.08
2023-06-26T21:15:51.500Z,1.08
2023-06-26T21:18:18.138Z,1.00
2023-06-26T21:20:44.768Z,1.20
2023-06-26T21:23:11.311Z,1.20
2023-06-26T21:25:39.191Z,1.00
2023-06-26T21:28:05.983Z,1.27
2023-06-26T21:30:32.510Z,1.20
2023-06-26T21:32:59.101Z,1.10
2023-06-26T21:35:41.421Z,1.30
2023-06-26T21:38:09.202Z,0.93
2023-06-26T21:40:35.810Z,1.20
2023-06-26T21:43:02.359Z,1.10
2023-06-26T21:45:29.238Z,1.20
2023-06-26T21:47:55.879Z,1.10
2023-06-26T21:50:22.403Z,1.20
2023-06-26T21:52:48.934Z,1.20
2023-06-26T21:55:15.590Z,1.23
2023-06-26T21:57:42.123Z,1.08
2023-06-26T22:00:08.898Z,1.00
2023-06-26T22:02:35.507Z,1.10
2023-06-26T22:05:02.109Z,1.58
2023-06-26T22:07:30.453Z,1.30
2023-06-26T22:10:07.656Z,1.08
2023-06-26T22:12:34.239Z,1.40
2023-06-26T22:15:00.845Z,1.25
2023-06-26T22:17:30.553Z,1.45
2023-06-26T22:22:23.984Z,1.10
2023-06-26T22:24:50.900Z,1.23
2023-06-26T22:27:17.451Z,1.30
2023-06-26T22:29:44.012Z,1.40
2023-06-26T22:32:10.580Z,1.35
2023-06-26T22:34:37.105Z,1.10
2023-06-26T22:37:04.009Z,1.88
2023-06-26T22:39:30.552Z,1.10
2023-06-26T22:41:57.096Z,0.95
2023-06-26T22:44:23.620Z,1.05
2023-06-26T22:46:50.187Z,1.10
2023-06-26T22:49:16.723Z,1.27
2023-06-26T22:51:43.283Z,1.50
2023-06-26T22:54:09.828Z,1.10
2023-06-26T22:56:46.224Z,1.42
2023-06-26T22:59:21.388Z,1.38
2023-06-26T23:01:48.000Z,1.30
2023-06-26T23:04:14.643Z,1.48
2023-06-26T23:06:41.245Z,1.38
2023-06-26T23:09:07.796Z,1.30
2023-06-26T23:11:34.397Z,1.48
2023-06-26T23:14:01.051Z,1.58
2023-06-26T23:16:27.677Z,1.50
2023-06-26T23:18:54.218Z,1.30
2023-06-26T23:21:20.826Z,1.70
2023-06-26T23:23:48.060Z,1.38
2023-06-26T23:26:14.596Z,1.50
2023-06-26T23:28:41.166Z,1.35
2023-06-26T23:31:07.787Z,1.27
2023-06-26T23:33:34.435Z,1.13
2023-06-26T23:36:01.031Z,1.58
2023-06-26T23:38:27.592Z,1.60
2023-06-26T23:40:54.165Z,1.67
2023-06-26T23:43:20.734Z,1.42
2023-06-26T23:45:47.348Z,1.60
2023-06-26T23:48:13.936Z,1.40
2023-06-26T23:50:41.327Z,1.60
2023-06-26T23:53:07.932Z,1.35
2023-06-26T23:55:34.533Z,1.55
2023-06-26T23:58:01.102Z,1.50
